sensor_id;sensor_type;location;lat;lon;timestamp;temperature;humidity
20929;DHT22;21895;47.072;15.132;2024-02-15T00:02:22;1.60;99.90
20929;DHT22;21895;47.072;15.132;2024-02-15T00:04:49;1.50;99.90
20929;DHT22;21895;47.072;15.132;2024-02-15T00:07:16;1.60;99.90
20929;DHT22;21895;47.072;15.132;2024-02-15T00:09:42;1.60;99.90
20929;DHT22;21895;47.072;15.132;2024-02-15T00:12:09;1.80;99.90
20929;DHT22;21895;47.072;15.132;2024-02-15T00:14:36;1.90;99.90
20929;DHT22;21895;47.072;15.132;2024-02-15T00:17:04;1.90;99.90
20929;DHT22;21895;47.072;15.132;2024-02-15T00:19:31;1.90;99.90
20929;DHT22;21895;47.072;15.132;2024-02-15T00:21:57;1.90;99.90
20929;DHT22;21895;47.072;15.132;2024-02-15T00:24:24;2.00;99.90
20929;DHT22;21895;47.072;15.132;2024-02-15T00:26:51;2.10;99.90
20929;DHT22;21895;47.072;15.132;2024-02-15T00:29:17;1.90;99.90
20929;DHT22;21895;47.072;15.132;2024-02-15T00:31:44;1.80;99.90
20929;DHT22;21895;47.072;15.132;2024-02-15T00:34:11;1.80;99.90
20929;DHT22;21895;47.072;15.132;2024-02-15T00:36:41;1.70;99.90
20929;DHT22;21895;47.072;15.132;2024-02-15T00:39:09;1.50;99.90
20929;DHT22;21895;47.072;15.132;2024-02-15T00:41:38;1.50;99.90
20929;DHT22;21895;47.072;15.132;2024-02-15T00:44:10;1.60;99.90
20929;DHT22;21895;47.072;15.132;2024-02-15T00:46:37;1.60;99.90
20929;DHT22;21895;47.072;15.132;2024-02-15T00:49:05;1.70;99.90
20929;DHT22;21895;47.072;15.132;2024-02-15T00:51:36;1.80;99.90
20929;DHT22;21895;47.072;15.132;2024-02-15T00:54:03;1.70;99.90
20929;DHT22;21895;47.072;15.132;2024-02-15T00:56:29;1.60;99.90
20929;DHT22;21895;47.072;15.132;2024-02-15T00:58:59;1.70;99.90
20929;DHT22;21895;47.072;15.132;2024-02-15T01:01:31;1.70;99.90
20929;DHT22;21895;47.072;15.132;2024-02-15T01:03:58;2.00;99.90
20929;DHT22;21895;47.072;15.132;2024-02-15T01:06:25;2.00;99.90
20929;DHT22;21895;47.072;15.132;2024-02-15T01:08:52;1.90;99.90
20929;DHT22;21895;47.072;15.132;2024-02-15T01:11:18;1.70;99.90
20929;DHT22;21895;47.072;15.132;2024-02-15T01:13:45;1.60;99.90
20929;DHT22;21895;47.072;15.132;2024-02-15T01:16:12;1.60;99.90
20929;DHT22;21895;47.072;15.132;2024-02-15T01:18:38;1.60;99.90
20929;DHT22;21895;47.072;15.132;2024-02-15T01:21:05;1.50;99.90
20929;DHT22;21895;47.072;15.132;2024-02-15T01:23:32;1.60;99.90
20929;DHT22;21895;47.072;15.132;2024-02-15T01:26:02;1.80;99.90
20929;DHT22;21895;47.072;15.132;2024-02-15T01:28:29;1.90;99.90
20929;DHT22;21895;47.072;15.132;2024-02-15T01:30:56;1.80;99.90
20929;DHT22;21895;47.072;15.132;2024-02-15T01:33:22;1.70;99.90
20929;DHT22;21895;47.072;15.132;2024-02-15T01:35:49;1.80;99.90
20929;DHT22;21895;47.072;15.132;2024-02-15T01:38:16;1.90;99.90
20929;DHT22;21895;47.072;15.132;2024-02-15T01:40:42;1.80;99.90
20929;DHT22;21895;47.072;15.132;2024-02-15T01:43:09;1.60;99.90
20929;DHT22;21895;47.072;15.132;2024-02-15T01:45:35;1.30;99.90
20929;DHT22;21895;47.072;15.132;2024-02-15T01:48:02;1.30;99.90
20929;DHT22;21895;47.072;15.132;2024-02-15T01:50:31;1.30;99.90
20929;DHT22;21895;47.072;15.132;2024-02-15T01:53:01;1.40;99.90
20929;DHT22;21895;47.072;15.132;2024-02-15T01:55:33;1.50;99.90
20929;DHT22;21895;47.072;15.132;2024-02-15T01:58:01;1.60;99.90
20929;DHT22;21895;47.072;15.132;2024-02-15T02:00:30;1.80;99.90
20929;DHT22;21895;47.072;15.132;2024-02-15T02:02:57;1.80;99.90
20929;DHT22;21895;47.072;15.132;2024-02-15T02:05:28;1.90;99.90
20929;DHT22;21895;47.072;15.132;2024-02-15T02:07:57;1.90;99.90
20929;DHT22;21895;47.072;15.132;2024-02-15T02:10:30;2.00;99.90
20929;DHT22;21895;47.072;15.132;2024-02-15T02:13:00;2.00;99.90
20929;DHT22;21895;47.072;15.132;2024-02-15T02:15:28;2.10;99.90
20929;DHT22;21895;47.072;15.132;2024-02-15T02:17:58;1.90;99.90
20929;DHT22;21895;47.072;15.132;2024-02-15T02:20:28;1.90;99.90
20929;DHT22;21895;47.072;15.132;2024-02-15T02:26:29;2.00;99.90
20929;DHT22;21895;47.072;15.132;2024-02-15T02:28:57;2.10;99.90
20929;DHT22;21895;47.072;15.132;2024-02-15T02:31:25;2.10;99.90
20929;DHT22;21895;47.072;15.132;2024-02-15T02:33:53;2.20;99.90
20929;DHT22;21895;47.072;15.132;2024-02-15T02:36:20;2.30;99.90
20929;DHT22;21895;47.072;15.132;2024-02-15T02:38:47;2.50;99.90
20929;DHT22;21895;47.072;15.132;2024-02-15T02:41:16;2.60;99.90
20929;DHT22;21895;47.072;15.132;2024-02-15T02:43:45;2.60;99.90
20929;DHT22;21895;47.072;15.132;2024-02-15T02:46:12;2.50;99.90
20929;DHT22;21895;47.072;15.132;2024-02-15T02:48:39;2.50;99.90
20929;DHT22;21895;47.072;15.132;2024-02-15T02:51:07;2.50;99.90
20929;DHT22;21895;47.072;15.132;2024-02-15T02:53:34;2.60;99.90
20929;DHT22;21895;47.072;15.132;2024-02-15T02:56:00;2.60;99.90
20929;DHT22;21895;47.072;15.132;2024-02-15T02:58:27;2.70;99.90
20929;DHT22;21895;47.072;15.132;2024-02-15T03:00:55;2.70;99.90
20929;DHT22;21895;47.072;15.132;2024-02-15T03:03:24;2.70;99.90
20929;DHT22;21895;47.072;15.132;2024-02-15T03:05:50;2.70;99.90
20929;DHT22;21895;47.072;15.132;2024-02-15T03:08:17;2.70;99.90
20929;DHT22;21895;47.072;15.132;2024-02-15T03:10:43;2.60;99.90
20929;DHT22;21895;47.072;15.132;2024-02-15T03:13:10;2.60;99.90
20929;DHT22;21895;47.072;15.132;2024-02-15T03:15:37;2.50;99.90
20929;DHT22;21895;47.072;15.132;2024-02-15T03:18:04;2.50;99.90
20929;DHT22;21895;47.072;15.132;2024-02-15T03:20:33;2.50;99.90
20929;DHT22;21895;47.072;15.132;2024-02-15T03:23:03;2.50;99.90
20929;DHT22;21895;47.072;15.132;2024-02-15T03:25:30;2.60;99.90
20929;DHT22;21895;47.072;15.132;2024-02-15T03:27:57;2.60;99.90
20929;DHT22;21895;47.072;15.132;2024-02-15T03:30:31;2.70;99.90
20929;DHT22;21895;47.072;15.132;2024-02-15T03:32:59;2.70;99.90
20929;DHT22;21895;47.072;15.132;2024-02-15T03:35:31;2.70;99.90
20929;DHT22;21895;47.072;15.132;2024-02-15T03:37:58;2.70;99.90
20929;DHT22;21895;47.072;15.132;2024-02-15T03:40:25;2.60;99.90
20929;DHT22;21895;47.072;15.132;2024-02-15T03:42:56;2.60;99.90
20929;DHT22;21895;47.072;15.132;2024-02-15T03:45:22;2.60;99.90
20929;DHT22;21895;47.072;15.132;2024-02-15T03:47:54;2.50;99.90
20929;DHT22;21895;47.072;15.132;2024-02-15T03:50:24;2.70;99.90
20929;DHT22;21895;47.072;15.132;2024-02-15T03:52:51;2.60;99.90
20929;DHT22;21895;47.072;15.132;2024-02-15T03:55:18;2.60;99.90
20929;DHT22;21895;47.072;15.132;2024-02-15T03:57:45;2.60;99.90
20929;DHT22;21895;47.072;15.132;2024-02-15T04:00:13;2.70;99.90
20929;DHT22;21895;47.072;15.132;2024-02-15T04:02:46;2.60;99.90
20929;DHT22;21895;47.072;15.132;2024-02-15T04:05:16;2.70;99.90
20929;DHT22;21895;47.072;15.132;2024-02-15T04:07:44;2.70;99.90
20929;DHT22;21895;47.072;15.132;2024-02-15T04:10:11;2.80;99.90
20929;DHT22;21895;47.072;15.132;2024-02-15T04:12:38;2.90;99.90
20929;DHT22;21895;47.072;15.132;2024-02-15T04:15:08;3.00;99.90
20929;DHT22;21895;47.072;15.132;2024-02-15T04:17:38;3.00;99.90
20929;DHT22;21895;47.072;15.132;2024-02-15T04:20:05;3.00;99.90
20929;DHT22;21895;47.072;15.132;2024-02-15T04:22:33;3.00;99.90
20929;DHT22;21895;47.072;15.132;2024-02-15T04:25:07;3.00;99.90
20929;DHT22;21895;47.072;15.132;2024-02-15T04:27:44;3.10;99.90
20929;DHT22;21895;47.072;15.132;2024-02-15T04:30:15;3.10;99.90
20929;DHT22;21895;47.072;15.132;2024-02-15T04:32:42;3.10;99.90
20929;DHT22;21895;47.072;15.132;2024-02-15T04:35:08;3.10;99.90
20929;DHT22;21895;47.072;15.132;2024-02-15T04:37:39;3.20;99.90
20929;DHT22;21895;47.072;15.132;2024-02-15T04:40:07;3.10;99.90
20929;DHT22;21895;47.072;15.132;2024-02-15T04:42:38;3.10;99.90
20929;DHT22;21895;47.072;15.132;2024-02-15T04:45:06;3.10;99.90
20929;DHT22;21895;47.072;15.132;2024-02-15T04:47:35;3.10;99.90
20929;DHT22;21895;47.072;15.132;2024-02-15T04:50:02;3.10;99.90
20929;DHT22;21895;47.072;15.132;2024-02-15T04:52:29;3.10;99.90
20929;DHT22;21895;47.072;15.132;2024-02-15T04:54:56;3.00;99.90
20929;DHT22;21895;47.072;15.132;2024-02-15T04:57:25;3.00;99.90
20929;DHT22;21895;47.072;15.132;2024-02-15T04:59:55;3.10;99.90
20929;DHT22;21895;47.072;15.132;2024-02-15T05:02:21;3.20;99.90
20929;DHT22;21895;47.072;15.132;2024-02-15T05:04:51;3.30;99.90
20929;DHT22;21895;47.072;15.132;2024-02-15T05:07:22;3.30;99.90
20929;DHT22;21895;47.072;15.132;2024-02-15T05:09:49;3.30;99.90
20929;DHT22;21895;47.072;15.132;2024-02-15T05:12:22;3.30;99.90
20929;DHT22;21895;47.072;15.132;2024-02-15T05:14:53;3.30;99.90
20929;DHT22;21895;47.072;15.132;2024-02-15T05:17:20;3.30;99.90
20929;DHT22;21895;47.072;15.132;2024-02-15T05:19:49;3.40;99.90
20929;DHT22;21895;47.072;15.132;2024-02-15T05:22:16;3.40;99.90
20929;DHT22;21895;47.072;15.132;2024-02-15T05:24:44;3.40;99.90
20929;DHT22;21895;47.072;15.132;2024-02-15T05:27:11;3.40;99.90
20929;DHT22;21895;47.072;15.132;2024-02-15T05:29:38;3.40;99.90
20929;DHT22;21895;47.072;15.132;2024-02-15T05:32:08;3.50;99.90
20929;DHT22;21895;47.072;15.132;2024-02-15T05:34:35;3.50;99.90
20929;DHT22;21895;47.072;15.132;2024-02-15T05:37:05;3.50;99.90
20929;DHT22;21895;47.072;15.132;2024-02-15T05:39:36;3.50;99.90
20929;DHT22;21895;47.072;15.132;2024-02-15T05:42:03;3.50;99.90
20929;DHT22;21895;47.072;15.132;2024-02-15T05:44:30;3.50;99.90
20929;DHT22;21895;47.072;15.132;2024-02-15T05:47:00;3.50;99.90
20929;DHT22;21895;47.072;15.132;2024-02-15T05:49:26;3.50;99.90
20929;DHT22;21895;47.072;15.132;2024-02-15T05:51:53;3.50;99.90
20929;DHT22;21895;47.072;15.132;2024-02-15T05:54:20;3.50;99.90
20929;DHT22;21895;47.072;15.132;2024-02-15T05:56:48;3.50;99.90
20929;DHT22;21895;47.072;15.132;2024-02-15T05:59:18;3.40;99.90
20929;DHT22;21895;47.072;15.132;2024-02-15T06:01:46;3.40;99.90
20929;DHT22;21895;47.072;15.132;2024-02-15T06:04:17;3.50;99.90
20929;DHT22;21895;47.072;15.132;2024-02-15T06:06:45;3.50;99.90
20929;DHT22;21895;47.072;15.132;2024-02-15T06:09:14;3.50;99.90
20929;DHT22;21895;47.072;15.132;2024-02-15T06:11:41;3.50;99.90
20929;DHT22;21895;47.072;15.132;2024-02-15T06:14:10;3.50;99.90
20929;DHT22;21895;47.072;15.132;2024-02-15T06:16:45;3.40;99.90
20929;DHT22;21895;47.072;15.132;2024-02-15T06:19:13;3.40;99.90
20929;DHT22;21895;47.072;15.132;2024-02-15T06:21:41;3.50;99.90
20929;DHT22;21895;47.072;15.132;2024-02-15T06:24:08;3.50;99.90
20929;DHT22;21895;47.072;15.132;2024-02-15T06:26:35;3.60;99.90
20929;DHT22;21895;47.072;15.132;2024-02-15T06:29:02;3.60;99.90
20929;DHT22;21895;47.072;15.132;2024-02-15T06:31:46;3.70;99.90
20929;DHT22;21895;47.072;15.132;2024-02-15T06:34:31;3.80;99.90
20929;DHT22;21895;47.072;15.132;2024-02-15T06:37:35;3.90;99.90
20929;DHT22;21895;47.072;15.132;2024-02-15T06:40:21;4.00;99.90
20929;DHT22;21895;47.072;15.132;2024-02-15T06:42:49;4.10;99.90
20929;DHT22;21895;47.072;15.132;2024-02-15T06:45:16;4.10;99.90
20929;DHT22;21895;47.072;15.132;2024-02-15T06:47:44;4.20;99.90
20929;DHT22;21895;47.072;15.132;2024-02-15T06:50:12;4.20;99.90
20929;DHT22;21895;47.072;15.132;2024-02-15T06:52:40;4.30;99.90
20929;DHT22;21895;47.072;15.132;2024-02-15T06:55:08;4.30;99.90
20929;DHT22;21895;47.072;15.132;2024-02-15T06:57:41;4.40;99.90
20929;DHT22;21895;47.072;15.132;2024-02-15T07:00:10;4.50;99.90
20929;DHT22;21895;47.072;15.132;2024-02-15T07:02:41;4.60;99.90
20929;DHT22;21895;47.072;15.132;2024-02-15T07:05:10;4.70;99.90
20929;DHT22;21895;47.072;15.132;2024-02-15T07:07:37;4.80;99.90
20929;DHT22;21895;47.072;15.132;2024-02-15T07:10:05;4.80;99.90
20929;DHT22;21895;47.072;15.132;2024-02-15T07:12:32;4.80;99.90
20929;DHT22;21895;47.072;15.132;2024-02-15T07:14:59;4.80;99.90
20929;DHT22;21895;47.072;15.132;2024-02-15T07:17:28;4.90;99.90
20929;DHT22;21895;47.072;15.132;2024-02-15T07:19:55;5.00;99.90
20929;DHT22;21895;47.072;15.132;2024-02-15T07:22:22;5.20;99.90
20929;DHT22;21895;47.072;15.132;2024-02-15T07:24:48;5.40;99.90
20929;DHT22;21895;47.072;15.132;2024-02-15T07:27:15;5.50;99.90
20929;DHT22;21895;47.072;15.132;2024-02-15T07:29:43;5.50;99.90
20929;DHT22;21895;47.072;15.132;2024-02-15T07:32:10;5.50;99.90
20929;DHT22;21895;47.072;15.132;2024-02-15T07:34:38;5.50;99.90
20929;DHT22;21895;47.072;15.132;2024-02-15T07:37:07;5.60;99.90
20929;DHT22;21895;47.072;15.132;2024-02-15T07:39:33;5.80;99.90
20929;DHT22;21895;47.072;15.132;2024-02-15T07:42:02;5.90;99.90
20929;DHT22;21895;47.072;15.132;2024-02-15T07:44:31;5.90;99.90
20929;DHT22;21895;47.072;15.132;2024-02-15T07:46:58;6.10;99.90
20929;DHT22;21895;47.072;15.132;2024-02-15T07:49:26;6.20;99.90
20929;DHT22;21895;47.072;15.132;2024-02-15T07:51:53;6.30;99.90
20929;DHT22;21895;47.072;15.132;2024-02-15T07:54:20;6.30;99.90
20929;DHT22;21895;47.072;15.132;2024-02-15T07:56:48;6.40;99.90
20929;DHT22;21895;47.072;15.132;2024-02-15T07:59:15;6.40;99.90
20929;DHT22;21895;47.072;15.132;2024-02-15T08:01:48;6.50;99.90
20929;DHT22;21895;47.072;15.132;2024-02-15T08:04:16;6.40;99.90
20929;DHT22;21895;47.072;15.132;2024-02-15T08:06:44;6.50;99.90
20929;DHT22;21895;47.072;15.132;2024-02-15T08:09:11;6.50;99.90
20929;DHT22;21895;47.072;15.132;2024-02-15T08:11:41;6.50;99.90
20929;DHT22;21895;47.072;15.132;2024-02-15T08:14:08;6.60;99.90
20929;DHT22;21895;47.072;15.132;2024-02-15T08:16:40;6.60;99.90
20929;DHT22;21895;47.072;15.132;2024-02-15T08:19:07;6.60;99.90
20929;DHT22;21895;47.072;15.132;2024-02-15T08:21:34;6.70;99.90
20929;DHT22;21895;47.072;15.132;2024-02-15T08:24:07;7.00;99.90
20929;DHT22;21895;47.072;15.132;2024-02-15T08:26:36;7.20;99.90
20929;DHT22;21895;47.072;15.132;2024-02-15T08:29:06;7.40;99.90
20929;DHT22;21895;47.072;15.132;2024-02-15T08:31:33;7.60;99.90
20929;DHT22;21895;47.072;15.132;2024-02-15T08:34:03;7.70;99.90
20929;DHT22;21895;47.072;15.132;2024-02-15T08:36:31;8.00;99.90
20929;DHT22;21895;47.072;15.132;2024-02-15T08:38:58;8.20;99.90
20929;DHT22;21895;47.072;15.132;2024-02-15T08:41:26;8.20;99.90
20929;DHT22;21895;47.072;15.132;2024-02-15T08:43:53;8.30;99.90
20929;DHT22;21895;47.072;15.132;2024-02-15T08:46:22;8.40;99.90
20929;DHT22;21895;47.072;15.132;2024-02-15T08:48:50;8.50;99.90
20929;DHT22;21895;47.072;15.132;2024-02-15T08:51:18;8.80;99.90
20929;DHT22;21895;47.072;15.132;2024-02-15T08:53:50;9.10;99.90
20929;DHT22;21895;47.072;15.132;2024-02-15T08:56:19;9.30;99.90
20929;DHT22;21895;47.072;15.132;2024-02-15T08:58:46;9.50;99.90
20929;DHT22;21895;47.072;15.132;2024-02-15T09:01:14;9.70;99.90
20929;DHT22;21895;47.072;15.132;2024-02-15T09:03:41;9.80;99.90
20929;DHT22;21895;47.072;15.132;2024-02-15T09:06:08;10.00;99.90
20929;DHT22;21895;47.072;15.132;2024-02-15T09:08:35;10.10;99.90
20929;DHT22;21895;47.072;15.132;2024-02-15T09:11:01;10.20;99.90
20929;DHT22;21895;47.072;15.132;2024-02-15T09:13:30;10.20;99.90
20929;DHT22;21895;47.072;15.132;2024-02-15T09:15:58;10.20;99.90
20929;DHT22;21895;47.072;15.132;2024-02-15T09:18:25;10.30;99.90
20929;DHT22;21895;47.072;15.132;2024-02-15T09:20:51;10.30;99.90
20929;DHT22;21895;47.072;15.132;2024-02-15T09:23:22;10.30;99.90
20929;DHT22;21895;47.072;15.132;2024-02-15T09:25:52;10.30;99.90
20929;DHT22;21895;47.072;15.132;2024-02-15T09:28:18;10.30;99.90
20929;DHT22;21895;47.072;15.132;2024-02-15T09:30:50;10.30;99.90
20929;DHT22;21895;47.072;15.132;2024-02-15T09:33:21;10.40;99.90
20929;DHT22;21895;47.072;15.132;2024-02-15T09:35:48;10.60;99.90
20929;DHT22;21895;47.072;15.132;2024-02-15T09:38:15;10.80;99.90
20929;DHT22;21895;47.072;15.132;2024-02-15T09:40:43;11.10;99.90
20929;DHT22;21895;47.072;15.132;2024-02-15T09:43:15;11.30;99.90
20929;DHT22;21895;47.072;15.132;2024-02-15T09:45:42;11.50;99.90
20929;DHT22;21895;47.072;15.132;2024-02-15T09:48:10;11.60;99.90
20929;DHT22;21895;47.072;15.132;2024-02-15T09:50:39;11.70;99.90
20929;DHT22;21895;47.072;15.132;2024-02-15T09:53:12;11.90;99.90
20929;DHT22;21895;47.072;15.132;2024-02-15T09:55:41;12.00;99.90
20929;DHT22;21895;47.072;15.132;2024-02-15T09:58:09;12.10;99.90
20929;DHT22;21895;47.072;15.132;2024-02-15T10:00:38;12.10;99.60
20929;DHT22;21895;47.072;15.132;2024-02-15T10:03:06;12.30;99.50
20929;DHT22;21895;47.072;15.132;2024-02-15T10:05:33;12.40;99.30
20929;DHT22;21895;47.072;15.132;2024-02-15T10:08:01;12.50;99.30
20929;DHT22;21895;47.072;15.132;2024-02-15T10:10:29;12.50;99.00
20929;DHT22;21895;47.072;15.132;2024-02-15T10:12:56;12.50;98.70
20929;DHT22;21895;47.072;15.132;2024-02-15T10:15:36;12.50;98.40
20929;DHT22;21895;47.072;15.132;2024-02-15T10:18:06;12.60;98.10
20929;DHT22;21895;47.072;15.132;2024-02-15T10:20:34;12.50;98.00
20929;DHT22;21895;47.072;15.132;2024-02-15T10:23:15;12.60;97.70
20929;DHT22;21895;47.072;15.132;2024-02-15T10:25:43;12.70;97.60
20929;DHT22;21895;47.072;15.132;2024-02-15T10:28:11;12.90;97.40
20929;DHT22;21895;47.072;15.132;2024-02-15T10:30:43;13.10;97.10
20929;DHT22;21895;47.072;15.132;2024-02-15T10:33:26;13.40;96.80
20929;DHT22;21895;47.072;15.132;2024-02-15T10:36:08;13.70;95.70
20929;DHT22;21895;47.072;15.132;2024-02-15T10:38:37;14.00;95.50
20929;DHT22;21895;47.072;15.132;2024-02-15T10:41:05;14.10;95.60
20929;DHT22;21895;47.072;15.132;2024-02-15T10:43:36;14.20;95.20
20929;DHT22;21895;47.072;15.132;2024-02-15T10:46:06;14.30;95.40
20929;DHT22;21895;47.072;15.132;2024-02-15T10:48:37;14.20;95.00
20929;DHT22;21895;47.072;15.132;2024-02-15T10:51:09;14.10;94.90
20929;DHT22;21895;47.072;15.132;2024-02-15T10:53:47;14.00;95.00
20929;DHT22;21895;47.072;15.132;2024-02-15T10:56:26;14.00;95.00
20929;DHT22;21895;47.072;15.132;2024-02-15T10:59:16;13.90;95.00
20929;DHT22;21895;47.072;15.132;2024-02-15T11:01:49;13.90;95.00
20929;DHT22;21895;47.072;15.132;2024-02-15T11:04:27;13.90;94.90
20929;DHT22;21895;47.072;15.132;2024-02-15T11:06:59;13.90;94.80
20929;DHT22;21895;47.072;15.132;2024-02-15T11:09:28;14.10;94.60
20929;DHT22;21895;47.072;15.132;2024-02-15T11:11:56;14.30;94.70
20929;DHT22;21895;47.072;15.132;2024-02-15T11:14:27;14.30;94.20
20929;DHT22;21895;47.072;15.132;2024-02-15T11:17:01;14.50;94.10
20929;DHT22;21895;47.072;15.132;2024-02-15T11:19:42;14.90;93.90
20929;DHT22;21895;47.072;15.132;2024-02-15T11:22:13;15.00;93.30
20929;DHT22;21895;47.072;15.132;2024-02-15T11:24:52;15.00;93.00
20929;DHT22;21895;47.072;15.132;2024-02-15T11:27:29;15.00;93.10
20929;DHT22;21895;47.072;15.132;2024-02-15T11:30:01;15.10;92.80
20929;DHT22;21895;47.072;15.132;2024-02-15T11:32:45;15.20;92.30
20929;DHT22;21895;47.072;15.132;2024-02-15T11:35:25;15.10;92.40
20929;DHT22;21895;47.072;15.132;2024-02-15T11:37:55;15.10;92.50
20929;DHT22;21895;47.072;15.132;2024-02-15T11:42:25;15.10;92.00
20929;DHT22;21895;47.072;15.132;2024-02-15T11:45:07;15.20;92.10
20929;DHT22;21895;47.072;15.132;2024-02-15T11:47:38;15.30;91.80
20929;DHT22;21895;47.072;15.132;2024-02-15T11:50:10;15.20;92.00
20929;DHT22;21895;47.072;15.132;2024-02-15T11:52:41;15.20;91.80
20929;DHT22;21895;47.072;15.132;2024-02-15T11:55:12;15.20;91.50
20929;DHT22;21895;47.072;15.132;2024-02-15T11:57:41;15.10;92.00
20929;DHT22;21895;47.072;15.132;2024-02-15T12:00:23;15.20;92.20
20929;DHT22;21895;47.072;15.132;2024-02-15T12:03:09;15.10;93.30
20929;DHT22;21895;47.072;15.132;2024-02-15T12:05:55;15.00;93.60
20929;DHT22;21895;47.072;15.132;2024-02-15T12:08:44;15.00;93.90
20929;DHT22;21895;47.072;15.132;2024-02-15T12:11:30;15.00;94.20
20929;DHT22;21895;47.072;15.132;2024-02-15T12:14:15;15.10;93.70
20929;DHT22;21895;47.072;15.132;2024-02-15T12:17:05;15.10;93.60
20929;DHT22;21895;47.072;15.132;2024-02-15T12:19:55;15.10;93.70
20929;DHT22;21895;47.072;15.132;2024-02-15T12:22:47;15.10;93.90
20929;DHT22;21895;47.072;15.132;2024-02-15T12:25:16;15.10;93.80
20929;DHT22;21895;47.072;15.132;2024-02-15T12:27:55;15.00;94.00
20929;DHT22;21895;47.072;15.132;2024-02-15T12:30:25;14.90;94.20
20929;DHT22;21895;47.072;15.132;2024-02-15T12:33:09;15.00;94.30
20929;DHT22;21895;47.072;15.132;2024-02-15T12:35:38;15.00;94.00
20929;DHT22;21895;47.072;15.132;2024-02-15T12:38:05;15.00;94.00
20929;DHT22;21895;47.072;15.132;2024-02-15T12:40:33;15.00;93.90
20929;DHT22;21895;47.072;15.132;2024-02-15T12:43:07;15.00;93.80
20929;DHT22;21895;47.072;15.132;2024-02-15T12:45:42;15.10;94.00
20929;DHT22;21895;47.072;15.132;2024-02-15T12:48:09;15.10;93.70
20929;DHT22;21895;47.072;15.132;2024-02-15T12:50:41;15.10;93.60
20929;DHT22;21895;47.072;15.132;2024-02-15T12:53:08;15.10;93.30
20929;DHT22;21895;47.072;15.132;2024-02-15T12:55:35;15.00;93.90
20929;DHT22;21895;47.072;15.132;2024-02-15T12:58:12;14.90;93.80
20929;DHT22;21895;47.072;15.132;2024-02-15T13:00:40;14.90;93.70
20929;DHT22;21895;47.072;15.132;2024-02-15T13:03:09;14.90;93.40
20929;DHT22;21895;47.072;15.132;2024-02-15T13:05:40;14.90;92.80
20929;DHT22;21895;47.072;15.132;2024-02-15T13:08:07;14.80;92.80
20929;DHT22;21895;47.072;15.132;2024-02-15T13:10:39;14.60;92.80
20929;DHT22;21895;47.072;15.132;2024-02-15T13:13:06;14.60;92.90
20929;DHT22;21895;47.072;15.132;2024-02-15T13:15:35;14.60;92.90
20929;DHT22;21895;47.072;15.132;2024-02-15T13:18:03;14.60;93.20
20929;DHT22;21895;47.072;15.132;2024-02-15T13:20:30;14.60;92.90
20929;DHT22;21895;47.072;15.132;2024-02-15T13:23:08;14.70;93.00
20929;DHT22;21895;47.072;15.132;2024-02-15T13:25:49;14.70;92.70
20929;DHT22;21895;47.072;15.132;2024-02-15T13:28:18;14.60;92.60
20929;DHT22;21895;47.072;15.132;2024-02-15T13:30:45;14.60;92.50
20929;DHT22;21895;47.072;15.132;2024-02-15T13:33:13;14.50;92.80
20929;DHT22;21895;47.072;15.132;2024-02-15T13:35:41;14.40;92.60
20929;DHT22;21895;47.072;15.132;2024-02-15T13:38:08;14.30;92.40
20929;DHT22;21895;47.072;15.132;2024-02-15T13:40:40;14.30;92.40
20929;DHT22;21895;47.072;15.132;2024-02-15T13:43:08;14.20;92.50
20929;DHT22;21895;47.072;15.132;2024-02-15T13:45:42;14.20;91.90
20929;DHT22;21895;47.072;15.132;2024-02-15T13:48:10;14.30;92.00
20929;DHT22;21895;47.072;15.132;2024-02-15T13:50:41;14.20;92.30
20929;DHT22;21895;47.072;15.132;2024-02-15T13:53:08;14.30;92.10
20929;DHT22;21895;47.072;15.132;2024-02-15T13:55:39;14.30;91.80
20929;DHT22;21895;47.072;15.132;2024-02-15T13:58:06;14.40;91.70
20929;DHT22;21895;47.072;15.132;2024-02-15T14:00:34;14.30;91.80
20929;DHT22;21895;47.072;15.132;2024-02-15T14:03:03;14.30;91.80
20929;DHT22;21895;47.072;15.132;2024-02-15T14:05:32;14.30;92.00
20929;DHT22;21895;47.072;15.132;2024-02-15T14:08:02;14.30;91.80
20929;DHT22;21895;47.072;15.132;2024-02-15T14:10:32;14.20;91.80
20929;DHT22;21895;47.072;15.132;2024-02-15T14:13:03;14.20;91.90
20929;DHT22;21895;47.072;15.132;2024-02-15T14:15:37;14.10;92.00
20929;DHT22;21895;47.072;15.132;2024-02-15T14:18:08;14.10;92.10
20929;DHT22;21895;47.072;15.132;2024-02-15T14:20:45;14.10;91.90
20929;DHT22;21895;47.072;15.132;2024-02-15T14:23:13;14.00;91.90
20929;DHT22;21895;47.072;15.132;2024-02-15T14:25:39;14.00;91.90
20929;DHT22;21895;47.072;15.132;2024-02-15T14:28:06;14.00;92.10
20929;DHT22;21895;47.072;15.132;2024-02-15T14:30:36;14.00;91.90
20929;DHT22;21895;47.072;15.132;2024-02-15T14:33:21;14.00;92.00
20929;DHT22;21895;47.072;15.132;2024-02-15T14:35:49;13.90;92.00
20929;DHT22;21895;47.072;15.132;2024-02-15T14:38:19;13.90;91.90
20929;DHT22;21895;47.072;15.132;2024-02-15T14:40:48;13.80;92.00
20929;DHT22;21895;47.072;15.132;2024-02-15T14:43:27;13.80;92.00
20929;DHT22;21895;47.072;15.132;2024-02-15T14:45:54;13.80;92.20
20929;DHT22;21895;47.072;15.132;2024-02-15T14:48:22;13.80;92.20
20929;DHT22;21895;47.072;15.132;2024-02-15T14:50:50;13.70;92.70
20929;DHT22;21895;47.072;15.132;2024-02-15T14:53:16;13.60;93.10
20929;DHT22;21895;47.072;15.132;2024-02-15T14:55:44;13.50;92.90
20929;DHT22;21895;47.072;15.132;2024-02-15T14:58:12;13.50;92.90
20929;DHT22;21895;47.072;15.132;2024-02-15T15:00:41;13.50;93.00
20929;DHT22;21895;47.072;15.132;2024-02-15T15:03:09;13.50;92.70
20929;DHT22;21895;47.072;15.132;2024-02-15T15:05:39;13.40;92.60
20929;DHT22;21895;47.072;15.132;2024-02-15T15:08:25;13.40;93.00
20929;DHT22;21895;47.072;15.132;2024-02-15T15:11:10;13.30;93.20
20929;DHT22;21895;47.072;15.132;2024-02-15T15:13:55;13.20;93.50
20929;DHT22;21895;47.072;15.132;2024-02-15T15:16:21;13.20;93.20
20929;DHT22;21895;47.072;15.132;2024-02-15T15:18:51;13.10;93.50
20929;DHT22;21895;47.072;15.132;2024-02-15T15:21:21;13.00;93.30
20929;DHT22;21895;47.072;15.132;2024-02-15T15:23:49;12.90;93.50
20929;DHT22;21895;47.072;15.132;2024-02-15T15:26:19;12.90;93.80
20929;DHT22;21895;47.072;15.132;2024-02-15T15:28:47;12.80;93.90
20929;DHT22;21895;47.072;15.132;2024-02-15T15:31:14;12.70;94.00
20929;DHT22;21895;47.072;15.132;2024-02-15T15:33:45;12.50;94.60
20929;DHT22;21895;47.072;15.132;2024-02-15T15:36:12;12.30;95.00
20929;DHT22;21895;47.072;15.132;2024-02-15T15:38:39;12.30;95.00
20929;DHT22;21895;47.072;15.132;2024-02-15T15:41:09;12.10;95.30
20929;DHT22;21895;47.072;15.132;2024-02-15T15:43:36;12.00;96.10
20929;DHT22;21895;47.072;15.132;2024-02-15T15:46:03;11.70;96.90
20929;DHT22;21895;47.072;15.132;2024-02-15T15:48:30;11.60;97.30